Time;durP1;ratioP1;P1;durP2;ratioP2;P2;SDS_P1;SDS_P2;PMS_P1;PMS_P2;Temp;Humidity;BMP_temperature;BMP_pressure;BME280_temperature;BME280_humidity;BME280_pressure;Samples;Min_cycle;Max_cycle;Signal;HPM_P1;HPM_P2
2023/03/10 00:00:46;;;;;;;9.13;3.15;;;;;;;;;;5027455;28;20052;-55
2023/03/10 00:03:12;;;;;;;8.45;2.40;;;;;;;;;;5027815;28;20037;-56
2023/03/10 00:05:37;;;;;;;4.47;1.92;;;;;;;;;;5028394;28;20021;-55
2023/03/10 00:08:03;;;;;;;11.23;2.13;;;;;;;;;;5027466;28;20038;-54
2023/03/10 00:10:29;;;;;;;8.05;1.85;;;;;;;;;;5028008;28;20059;-56
2023/03/10 00:12:54;;;;;;;4.45;1.27;;;;;;;;;;5025433;28;20033;-53
2023/03/10 00:15:20;;;;;;;7.18;1.90;;;;;;;;;;5026614;28;20033;-55
2023/03/10 00:17:48;;;;;;;7.63;1.95;;;;;;;;;;5025953;28;20519;-56
2023/03/10 00:20:14;;;;;;;5.63;1.98;;;;;;;;;;5041885;28;20729;-54
2023/03/10 00:22:43;;;;;;;9.40;1.90;;;;;;;;;;5047100;28;20124;-55
2023/03/10 00:25:09;;;;;;;6.10;1.65;;;;;;;;;;5047531;28;20025;-56
2023/03/10 00:27:34;;;;;;;10.00;1.75;;;;;;;;;;5046432;28;20029;-55
2023/03/10 00:30:00;;;;;;;8.13;1.88;;;;;;;;;;5046745;28;20112;-55
2023/03/10 00:32:25;;;;;;;8.25;2.00;;;;;;;;;;5047980;28;20020;-55
2023/03/10 00:34:50;;;;;;;7.43;2.03;;;;;;;;;;5046769;28;20074;-55
2023/03/10 00:37:16;;;;;;;4.85;1.88;;;;;;;;;;5038940;28;20034;-55
2023/03/10 00:39:41;;;;;;;7.30;2.00;;;;;;;;;;5026824;28;20034;-53
2023/03/10 00:42:06;;;;;;;6.88;1.55;;;;;;;;;;5027004;28;20101;-56
2023/03/10 00:44:32;;;;;;;5.53;1.23;;;;;;;;;;5028019;28;20056;-56
2023/03/10 00:46:57;;;;;;;7.50;1.50;;;;;;;;;;5025256;28;20037;-54
2023/03/10 00:49:23;;;;;;;5.18;1.27;;;;;;;;;;5027555;28;20030;-56
2023/03/10 00:51:48;;;;;;;6.63;1.55;;;;;;;;;;5026988;28;20033;-56
2023/03/10 00:54:13;;;;;;;3.95;1.30;;;;;;;;;;5027017;28;20079;-56
2023/03/10 00:56:38;;;;;;;5.95;1.10;;;;;;;;;;5040042;28;20032;-54
2023/03/10 00:59:05;;;;;;;4.43;1.38;;;;;;;;;;5046725;28;20033;-53
2023/03/10 01:01:35;;;;;;;9.10;1.42;;;;;;;;;;5046272;28;20033;-55
2023/03/10 01:04:05;;;;;;;4.10;1.33;;;;;;;;;;5047311;28;20529;-56
2023/03/10 01:06:31;;;;;;;9.80;1.42;;;;;;;;;;5046673;28;20033;-52
2023/03/10 01:08:57;;;;;;;4.05;1.42;;;;;;;;;;5046437;28;20455;-56
2023/03/10 01:11:25;;;;;;;6.50;1.20;;;;;;;;;;5046774;28;20131;-55
2023/03/10 01:13:52;;;;;;;6.10;1.20;;;;;;;;;;5046422;28;20033;-52
2023/03/10 01:16:17;;;;;;;10.13;1.75;;;;;;;;;;5045741;28;20075;-56
2023/03/10 01:18:42;;;;;;;9.82;1.95;;;;;;;;;;5046844;28;20029;-56
2023/03/10 01:21:16;;;;;;;7.05;1.98;;;;;;;;;;5045644;28;20063;-56
2023/03/10 01:23:42;;;;;;;10.55;1.42;;;;;;;;;;5046583;28;20043;-55
2023/03/10 01:26:07;;;;;;;7.95;1.40;;;;;;;;;;5046799;28;20016;-56
2023/03/10 01:28:32;;;;;;;6.47;1.35;;;;;;;;;;5046198;28;20039;-52
2023/03/10 01:30:58;;;;;;;10.00;1.38;;;;;;;;;;5046485;28;20037;-54
2023/03/10 01:33:23;;;;;;;7.28;1.73;;;;;;;;;;5045805;28;20021;-55
2023/03/10 01:35:48;;;;;;;6.18;1.50;;;;;;;;;;5045961;28;20056;-55
2023/03/10 01:38:14;;;;;;;6.15;1.27;;;;;;;;;;5046900;28;20017;-56
2023/03/10 01:40:39;;;;;;;11.45;2.05;;;;;;;;;;5045810;28;20421;-53
2023/03/10 01:43:20;;;;;;;7.90;1.58;;;;;;;;;;5030770;28;20499;-55
2023/03/10 01:45:46;;;;;;;8.48;1.35;;;;;;;;;;5024196;28;20037;-54
2023/03/10 01:48:15;;;;;;;8.80;1.25;;;;;;;;;;5026123;28;20044;-56
2023/03/10 01:50:44;;;;;;;7.00;1.95;;;;;;;;;;5025349;28;20044;-54
2023/03/10 01:53:09;;;;;;;9.95;1.60;;;;;;;;;;5026168;28;20530;-53
2023/03/10 01:55:40;;;;;;;9.95;1.73;;;;;;;;;;5022927;28;20084;-54
2023/03/10 01:58:06;;;;;;;8.77;2.40;;;;;;;;;;5025313;28;20044;-55
2023/03/10 02:00:31;;;;;;;16.10;2.83;;;;;;;;;;5025472;28;20038;-55
2023/03/10 02:03:07;;;;;;;11.20;2.05;;;;;;;;;;5026443;28;20076;-55
2023/03/10 02:05:36;;;;;;;3.42;1.45;;;;;;;;;;5032696;28;20027;-55
2023/03/10 02:08:02;;;;;;;9.48;1.67;;;;;;;;;;5044867;28;20141;-54
2023/03/10 02:10:28;;;;;;;11.57;2.13;;;;;;;;;;5045110;28;20593;-55
2023/03/10 02:12:54;;;;;;;9.10;1.63;;;;;;;;;;5045829;28;20064;-54
2023/03/10 02:15:19;;;;;;;8.02;1.67;;;;;;;;;;5045666;28;20057;-56
2023/03/10 02:17:45;;;;;;;11.18;2.88;;;;;;;;;;5045373;28;20091;-53
2023/03/10 02:20:17;;;;;;;7.85;1.95;;;;;;;;;;5046406;28;20025;-56
2023/03/10 02:22:42;;;;;;;6.18;2.40;;;;;;;;;;5042560;28;20095;-55
2023/03/10 02:25:08;;;;;;;18.92;2.38;;;;;;;;;;5045518;28;20051;-55
2023/03/10 02:27:35;;;;;;;12.48;2.13;;;;;;;;;;5045916;28;20045;-55
2023/03/10 02:30:22;;;;;;;13.57;2.42;;;;;;;;;;5045689;28;20029;-56
2023/03/10 02:32:52;;;;;;;8.90;1.67;;;;;;;;;;5045634;28;20032;-52
2023/03/10 02:35:18;;;;;;;12.70;2.75;;;;;;;;;;5025568;28;20521;-56
2023/03/10 02:37:43;;;;;;;9.57;1.83;;;;;;;;;;5026031;28;20038;-54
2023/03/10 02:40:32;;;;;;;7.97;2.33;;;;;;;;;;5021310;28;20164;-54
2023/03/10 02:43:05;;;;;;;8.98;1.67;;;;;;;;;;5025882;28;20106;-54
2023/03/10 02:45:32;;;;;;;;;;;;;;;;;;5026554;28;20030;-54
2023/03/10 02:47:57;;;;;;;10.48;1.90;;;;;;;;;;5024296;28;20016;-55
2023/03/10 02:50:25;;;;;;;6.43;1.13;;;;;;;;;;5025086;28;20105;-55
2023/03/10 02:52:59;;;;;;;6.93;1.20;;;;;;;;;;5025867;28;20450;-54
2023/03/10 02:55:25;;;;;;;5.03;1.27;;;;;;;;;;5023471;28;20096;-55
2023/03/10 02:57:50;;;;;;;12.15;1.65;;;;;;;;;;5024073;28;20033;-54
2023/03/10 03:00:16;;;;;;;7.28;0.93;;;;;;;;;;5026536;28;20569;-56
2023/03/10 03:02:41;;;;;;;5.47;0.75;;;;;;;;;;5028917;28;20053;-55
2023/03/10 03:05:07;;;;;;;6.70;1.10;;;;;;;;;;5028775;28;20037;-55
2023/03/10 03:07:32;;;;;;;5.43;0.90;;;;;;;;;;5027016;28;20583;-53
2023/03/10 03:09:57;;;;;;;8.50;1.00;;;;;;;;;;5022786;28;20060;-56
2023/03/10 03:12:23;;;;;;;3.40;0.80;;;;;;;;;;5012884;28;20087;-54
2023/03/10 03:14:48;;;;;;;5.10;0.93;;;;;;;;;;5027167;28;20028;-55
2023/03/10 03:17:13;;;;;;;3.35;0.63;;;;;;;;;;5028232;28;20048;-55
2023/03/10 03:19:40;;;;;;;4.43;0.75;;;;;;;;;;5038756;28;20076;-55
2023/03/10 03:22:05;;;;;;;4.28;0.90;;;;;;;;;;5047668;28;20069;-55
2023/03/10 03:24:31;;;;;;;4.45;0.90;;;;;;;;;;5048897;28;20462;-55
2023/03/10 03:26:57;;;;;;;1.92;0.70;;;;;;;;;;5043190;28;20014;-56
2023/03/10 03:29:22;;;;;;;4.50;0.77;;;;;;;;;;5028094;28;20027;-55
2023/03/10 03:31:47;;;;;;;4.18;0.85;;;;;;;;;;5029225;28;20049;-55
2023/03/10 03:34:14;;;;;;;4.45;0.93;;;;;;;;;;5028376;28;20040;-54
2023/03/10 03:36:40;;;;;;;2.67;0.75;;;;;;;;;;5028311;28;20033;-54
2023/03/10 03:39:06;;;;;;;4.88;0.90;;;;;;;;;;5029087;28;20032;-56
2023/03/10 03:41:32;;;;;;;2.60;0.82;;;;;;;;;;5028763;28;20014;-54
2023/03/10 03:43:57;;;;;;;5.22;1.77;;;;;;;;;;5028202;28;20474;-55
2023/03/10 03:46:23;;;;;;;2.78;0.95;;;;;;;;;;5028783;28;20037;-55
2023/03/10 03:48:48;;;;;;;3.10;0.65;;;;;;;;;;5027898;28;20029;-56
2023/03/10 03:51:13;;;;;;;6.80;1.60;;;;;;;;;;5028724;28;20045;-56
2023/03/10 03:53:39;;;;;;;6.32;1.00;;;;;;;;;;5028875;28;20359;-55
2023/03/10 03:56:04;;;;;;;1.17;0.50;;;;;;;;;;5028038;28;20043;-54
2023/03/10 03:58:30;;;;;;;6.60;0.80;;;;;;;;;;5025761;28;20075;-53
2023/03/10 04:00:55;;;;;;;5.30;1.13;;;;;;;;;;5027138;28;20033;-55
2023/03/10 04:03:21;;;;;;;4.03;0.77;;;;;;;;;;5028411;28;20048;-54
2023/03/10 04:05:46;;;;;;;3.08;0.80;;;;;;;;;;5027889;28;20479;-54
2023/03/10 04:08:12;;;;;;;2.78;1.00;;;;;;;;;;5028651;28;20156;-54
2023/03/10 04:10:38;;;;;;;4.93;0.88;;;;;;;;;;5025554;28;20033;-54
2023/03/10 04:13:03;;;;;;;4.05;0.75;;;;;;;;;;5026485;28;20033;-53
2023/03/10 04:15:28;;;;;;;2.22;0.80;;;;;;;;;;5027153;28;20033;-53
2023/03/10 04:17:56;;;;;;;1.88;0.60;;;;;;;;;;5027905;28;20049;-54
2023/03/10 04:20:23;;;;;;;7.63;1.10;;;;;;;;;;5043733;28;20171;-55
2023/03/10 04:22:49;;;;;;;5.50;1.38;;;;;;;;;;5047187;28;20537;-54
2023/03/10 04:25:14;;;;;;;6.10;1.00;;;;;;;;;;5047687;28;20032;-53
2023/03/10 04:27:39;;;;;;;6.25;1.13;;;;;;;;;;5047646;28;20075;-55
2023/03/10 04:30:06;;;;;;;4.78;0.95;;;;;;;;;;5047493;28;20152;-55
2023/03/10 04:32:31;;;;;;;3.72;0.65;;;;;;;;;;5047009;28;20506;-54
2023/03/10 04:34:56;;;;;;;5.63;1.25;;;;;;;;;;5046206;28;20045;-54
2023/03/10 04:37:22;;;;;;;6.95;1.45;;;;;;;;;;5047578;28;20112;-54
2023/03/10 04:39:47;;;;;;;9.52;1.70;;;;;;;;;;5040047;28;20044;-55
2023/03/10 04:42:12;;;;;;;8.32;1.40;;;;;;;;;;5021537;28;20523;-55
2023/03/10 04:44:38;;;;;;;9.32;1.42;;;;;;;;;;5021788;28;20033;-54
2023/03/10 04:47:03;;;;;;;4.68;1.63;;;;;;;;;;5026070;28;20040;-55
2023/03/10 04:49:28;;;;;;;5.60;0.98;;;;;;;;;;5027544;28;20566;-55
2023/03/10 04:51:54;;;;;;;9.70;1.20;;;;;;;;;;5026734;28;20037;-55
2023/03/10 04:54:20;;;;;;;3.83;0.90;;;;;;;;;;5026851;28;20037;-55
2023/03/10 04:56:45;;;;;;;5.35;1.20;;;;;;;;;;5027436;28;20163;-53
2023/03/10 04:59:11;;;;;;;5.68;1.02;;;;;;;;;;5027263;28;20112;-53
2023/03/10 05:01:36;;;;;;;7.10;1.27;;;;;;;;;;5019576;28;20503;-55
2023/03/10 05:04:03;;;;;;;5.10;1.45;;;;;;;;;;5006835;28;20041;-55
2023/03/10 05:06:29;;;;;;;8.68;1.65;;;;;;;;;;5006686;28;20041;-55
2023/03/10 05:08:55;;;;;;;6.00;1.15;;;;;;;;;;5007380;28;20026;-56
2023/03/10 05:11:20;;;;;;;7.72;1.17;;;;;;;;;;5019697;28;20029;-54
2023/03/10 05:13:46;;;;;;;6.18;1.55;;;;;;;;;;5013629;28;20037;-53
2023/03/10 05:16:17;;;;;;;4.05;0.93;;;;;;;;;;5006335;28;20038;-55
2023/03/10 05:18:42;;;;;;;5.38;1.35;;;;;;;;;;5010627;28;20578;-53
2023/03/10 05:21:08;;;;;;;6.28;1.23;;;;;;;;;;5046057;28;20033;-55
2023/03/10 05:23:33;;;;;;;6.13;1.00;;;;;;;;;;5046657;28;20078;-55
2023/03/10 05:26:06;;;;;;;5.95;1.05;;;;;;;;;;5046291;28;20116;-54
2023/03/10 05:28:31;;;;;;;3.85;0.90;;;;;;;;;;5045834;28;20033;-55
2023/03/10 05:30:57;;;;;;;4.70;1.08;;;;;;;;;;5046494;28;20565;-55
2023/03/10 05:33:22;;;;;;;10.35;1.52;;;;;;;;;;5044366;28;20612;-55
2023/03/10 05:35:48;;;;;;;4.57;1.15;;;;;;;;;;5046856;28;20493;-54
2023/03/10 05:38:14;;;;;;;3.47;0.95;;;;;;;;;;5047031;28;20047;-55
2023/03/10 05:40:40;;;;;;;8.60;1.80;;;;;;;;;;5045623;28;20124;-56
2023/03/10 05:43:06;;;;;;;8.10;1.38;;;;;;;;;;5046396;28;20055;-53
2023/03/10 05:45:31;;;;;;;8.70;1.35;;;;;;;;;;5045432;28;20052;-55
2023/03/10 05:47:56;;;;;;;7.78;1.35;;;;;;;;;;5045727;28;20037;-56
2023/03/10 05:50:22;;;;;;;8.50;1.10;;;;;;;;;;5032028;28;20431;-54
2023/03/10 05:52:47;;;;;;;10.32;2.25;;;;;;;;;;5025527;28;20464;-56
2023/03/10 05:55:17;;;;;;;7.85;1.45;;;;;;;;;;5025842;28;20552;-55
2023/03/10 05:57:43;;;;;;;6.78;1.65;;;;;;;;;;5026457;28;20041;-55
2023/03/10 06:00:11;;;;;;;6.45;1.58;;;;;;;;;;5026360;28;20030;-55
2023/03/10 06:02:37;;;;;;;9.00;1.40;;;;;;;;;;5023180;28;20380;-54
2023/03/10 06:05:05;;;;;;;5.63;1.60;;;;;;;;;;5005620;28;20045;-53
2023/03/10 06:07:30;;;;;;;9.65;1.20;;;;;;;;;;5006217;28;20052;-55
2023/03/10 06:09:56;;;;;;;6.78;1.42;;;;;;;;;;5006514;28;20482;-53
2023/03/10 06:12:21;;;;;;;5.03;1.10;;;;;;;;;;5019104;28;20118;-55
2023/03/10 06:14:46;;;;;;;7.05;1.00;;;;;;;;;;5044663;28;20830;-55
2023/03/10 06:17:12;;;;;;;4.22;1.05;;;;;;;;;;5046429;28;20430;-55
2023/03/10 06:19:37;;;;;;;13.35;1.42;;;;;;;;;;5043485;28;20037;-55
2023/03/10 06:22:03;;;;;;;6.03;1.42;;;;;;;;;;5025434;28;20069;-55
2023/03/10 06:24:28;;;;;;;8.98;1.45;;;;;;;;;;5026027;28;20037;-52
2023/03/10 06:26:53;;;;;;;9.85;1.77;;;;;;;;;;5025822;28;20029;-56
2023/03/10 06:29:19;;;;;;;13.45;1.50;;;;;;;;;;5024001;28;20053;-56
2023/03/10 06:31:44;;;;;;;7.43;1.23;;;;;;;;;;5024845;28;20088;-55
2023/03/10 06:34:09;;;;;;;5.07;1.35;;;;;;;;;;5025930;28;20061;-55
2023/03/10 06:36:36;;;;;;;10.93;1.70;;;;;;;;;;5029119;28;20419;-54
2023/03/10 06:39:02;;;;;;;6.75;1.02;;;;;;;;;;5028524;28;20048;-53
2023/03/10 06:41:27;;;;;;;10.68;1.67;;;;;;;;;;5013302;28;20033;-56
2023/03/10 06:43:53;;;;;;;7.60;1.35;;;;;;;;;;5024153;28;20124;-55
2023/03/10 06:46:18;;;;;;;12.43;1.50;;;;;;;;;;5023655;28;20567;-55
2023/03/10 06:48:44;;;;;;;7.07;2.05;;;;;;;;;;5046523;28;20041;-54
2023/03/10 06:51:15;;;;;;;9.18;1.38;;;;;;;;;;5048553;28;20063;-55
2023/03/10 06:53:41;;;;;;;8.68;1.48;;;;;;;;;;5037872;28;20100;-55
2023/03/10 06:56:10;;;;;;;7.03;1.65;;;;;;;;;;5029427;28;20132;-51
2023/03/10 06:58:36;;;;;;;10.75;1.60;;;;;;;;;;5028555;28;20033;-55
2023/03/10 07:01:03;;;;;;;5.40;1.20;;;;;;;;;;5023813;28;20044;-56
2023/03/10 07:03:28;;;;;;;5.30;1.13;;;;;;;;;;5008983;28;20051;-54
2023/03/10 07:05:57;;;;;;;9.57;1.27;;;;;;;;;;5009069;28;20455;-55
2023/03/10 07:08:22;;;;;;;9.00;1.40;;;;;;;;;;5014444;28;20421;-55
2023/03/10 07:10:47;;;;;;;10.75;1.50;;;;;;;;;;5024401;28;20037;-55
2023/03/10 07:13:14;;;;;;;10.07;1.40;;;;;;;;;;5007722;28;20048;-55
2023/03/10 07:15:40;;;;;;;2.42;1.10;;;;;;;;;;5019725;28;20041;-53
2023/03/10 07:18:06;;;;;;;5.60;1.00;;;;;;;;;;5017335;28;20523;-54
2023/03/10 07:20:31;;;;;;;6.63;1.30;;;;;;;;;;5025820;28;20028;-56
2023/03/10 07:22:56;;;;;;;6.15;1.17;;;;;;;;;;5027516;28;20045;-54
2023/03/10 07:25:23;;;;;;;8.43;1.30;;;;;;;;;;5027407;28;20399;-56
2023/03/10 07:27:49;;;;;;;5.85;1.70;;;;;;;;;;5028235;28;20088;-55
2023/03/10 07:30:14;;;;;;;9.75;1.52;;;;;;;;;;5027138;28;20501;-55
2023/03/10 07:32:40;;;;;;;8.90;1.85;;;;;;;;;;5028382;28;20109;-55
2023/03/10 07:35:06;;;;;;;9.93;1.52;;;;;;;;;;5023790;28;20126;-55
2023/03/10 07:37:31;;;;;;;9.00;1.67;;;;;;;;;;5026706;28;20435;-55
2023/03/10 07:39:56;;;;;;;5.97;1.52;;;;;;;;;;5039147;28;20038;-55
2023/03/10 07:42:22;;;;;;;5.05;1.65;;;;;;;;;;5023695;28;20033;-54
2023/03/10 07:44:47;;;;;;;4.97;1.70;;;;;;;;;;5027000;28;20060;-55
2023/03/10 07:47:12;;;;;;;7.60;1.48;;;;;;;;;;5028095;28;20071;-54
2023/03/10 07:49:38;;;;;;;8.48;1.85;;;;;;;;;;5027916;28;20037;-53
2023/03/10 07:52:04;;;;;;;5.85;1.35;;;;;;;;;;5027783;28;20511;-55
2023/03/10 07:54:29;;;;;;;10.40;1.63;;;;;;;;;;5027402;28;20034;-56
2023/03/10 07:56:54;;;;;;;4.95;1.45;;;;;;;;;;5019462;28;20036;-56
2023/03/10 07:59:20;;;;;;;5.65;1.60;;;;;;;;;;5020681;28;20025;-55
2023/03/10 08:01:45;;;;;;;5.75;1.27;;;;;;;;;;5030738;28;20033;-55
2023/03/10 08:04:11;;;;;;;6.18;1.13;;;;;;;;;;5024239;28;20172;-56
2023/03/10 08:06:36;;;;;;;5.75;1.92;;;;;;;;;;5026796;28;20033;-55
2023/03/10 08:09:02;;;;;;;4.15;1.83;;;;;;;;;;5026681;28;20502;-55
2023/03/10 08:11:28;;;;;;;5.15;1.23;;;;;;;;;;5022740;28;20026;-55
2023/03/10 08:13:53;;;;;;;8.13;2.53;;;;;;;;;;5020510;28;20461;-54
2023/03/10 08:16:20;;;;;;;10.02;1.95;;;;;;;;;;5032755;28;20110;-55
2023/03/10 08:18:45;;;;;;;3.22;1.40;;;;;;;;;;5027548;28;20025;-55
2023/03/10 08:21:11;;;;;;;5.68;1.80;;;;;;;;;;5021444;28;20045;-55
2023/03/10 08:23:36;;;;;;;1.33;0.93;;;;;;;;;;5022948;28;20112;-54
2023/03/10 08:26:05;;;;;;;5.65;1.73;;;;;;;;;;5020777;28;20061;-54
2023/03/10 08:28:33;;;;;;;6.43;1.52;;;;;;;;;;5023492;28;20121;-55
2023/03/10 08:30:59;;;;;;;5.68;1.58;;;;;;;;;;5021152;28;20033;-52
2023/03/10 08:33:27;;;;;;;10.40;1.55;;;;;;;;;;5027040;28;20038;-53
2023/03/10 08:36:16;;;;;;;3.13;1.10;;;;;;;;;;5020530;28;20164;-55
2023/03/10 08:38:42;;;;;;;3.92;1.63;;;;;;;;;;5025454;28;20018;-55
2023/03/10 08:41:14;;;;;;;2.00;1.20;;;;;;;;;;5024050;28;20084;-55
2023/03/10 08:43:40;;;;;;;5.18;1.17;;;;;;;;;;5019376;28;20458;-56
2023/03/10 08:46:06;;;;;;;3.28;1.30;;;;;;;;;;5026595;28;20049;-55
2023/03/10 08:48:32;;;;;;;5.45;1.20;;;;;;;;;;5018436;28;20083;-54
2023/03/10 08:50:57;;;;;;;6.28;1.33;;;;;;;;;;5025751;28;20026;-56
2023/03/10 08:53:23;;;;;;;7.18;1.13;;;;;;;;;;5017179;28;20017;-55
2023/03/10 08:55:48;;;;;;;5.07;1.20;;;;;;;;;;5020448;28;20592;-55
2023/03/10 08:58:14;;;;;;;3.50;1.17;;;;;;;;;;5017671;28;20515;-54
2023/03/10 09:00:39;;;;;;;2.63;1.25;;;;;;;;;;5026553;28;20053;-54
2023/03/10 09:03:05;;;;;;;3.05;1.10;;;;;;;;;;5019732;28;20543;-55
2023/03/10 09:05:30;;;;;;;2.95;1.33;;;;;;;;;;5013053;28;20518;-53
2023/03/10 09:07:56;;;;;;;3.70;1.52;;;;;;;;;;5020705;28;20099;-55
2023/03/10 09:10:21;;;;;;;5.45;1.42;;;;;;;;;;5020481;28;20124;-55
2023/03/10 09:12:47;;;;;;;4.20;1.60;;;;;;;;;;5018514;28;20091;-56
2023/03/10 09:15:12;;;;;;;2.97;1.40;;;;;;;;;;5020020;28;20087;-56
2023/03/10 09:17:38;;;;;;;4.25;1.92;;;;;;;;;;5022248;28;20045;-55
2023/03/10 09:20:05;;;;;;;3.60;2.40;;;;;;;;;;5010127;28;20038;-55
2023/03/10 09:22:31;;;;;;;4.50;2.10;;;;;;;;;;5019022;28;20537;-55
2023/03/10 09:24:56;;;;;;;6.57;2.20;;;;;;;;;;5023430;28;20072;-55
2023/03/10 09:27:21;;;;;;;3.70;2.38;;;;;;;;;;5025498;28;20033;-54
2023/03/10 09:29:47;;;;;;;3.78;2.05;;;;;;;;;;5019257;28;20037;-53
2023/03/10 09:32:12;;;;;;;4.38;2.50;;;;;;;;;;5025174;28;20016;-55
2023/03/10 09:34:37;;;;;;;5.50;2.50;;;;;;;;;;5016938;28;20588;-55
2023/03/10 09:37:03;;;;;;;3.60;2.20;;;;;;;;;;5023995;28;20507;-55
2023/03/10 09:39:29;;;;;;;6.00;2.88;;;;;;;;;;5018257;28;20033;-53
2023/03/10 09:41:54;;;;;;;3.70;2.15;;;;;;;;;;5013312;28;20422;-54
2023/03/10 09:44:42;;;;;;;3.63;2.42;;;;;;;;;;5021532;28;20047;-55
2023/03/10 09:47:21;;;;;;;4.43;2.45;;;;;;;;;;5015832;28;20099;-56
2023/03/10 09:49:58;;;;;;;4.28;2.20;;;;;;;;;;5018510;28;20377;-55
2023/03/10 09:52:45;;;;;;;4.07;1.98;;;;;;;;;;5023487;28;20522;-55
2023/03/10 09:55:19;;;;;;;2.58;1.70;;;;;;;;;;5017889;28;20041;-54
2023/03/10 09:57:55;;;;;;;1.98;1.55;;;;;;;;;;5015085;28;20133;-53
2023/03/10 10:00:25;;;;;;;3.90;1.80;;;;;;;;;;5017011;28;20091;-53
2023/03/10 10:03:00;;;;;;;2.47;1.52;;;;;;;;;;5018469;28;20403;-53
2023/03/10 10:05:30;;;;;;;2.00;1.10;;;;;;;;;;5018875;28;20029;-53
2023/03/10 10:07:58;;;;;;;2.70;1.50;;;;;;;;;;5019539;28;20084;-56
2023/03/10 10:10:27;;;;;;;1.70;1.17;;;;;;;;;;5020347;28;20106;-54
2023/03/10 10:12:54;;;;;;;1.85;1.25;;;;;;;;;;5019690;28;20442;-54
2023/03/10 10:15:25;;;;;;;3.13;1.80;;;;;;;;;;5021472;28;20048;-54
2023/03/10 10:18:13;;;;;;;1.80;1.30;;;;;;;;;;5009312;28;20049;-54
2023/03/10 10:20:45;;;;;;;3.20;2.72;;;;;;;;;;5024597;28;20057;-54
2023/03/10 10:23:19;;;;;;;3.88;3.08;;;;;;;;;;5023763;28;20057;-55
2023/03/10 10:25:44;;;;;;;4.28;2.20;;;;;;;;;;5022356;28;20049;-54
2023/03/10 10:28:19;;;;;;;2.22;1.70;;;;;;;;;;5018990;28;20099;-55
2023/03/10 10:30:44;;;;;;;2.60;1.73;;;;;;;;;;5025587;28;20037;-55
2023/03/10 10:33:12;;;;;;;1.80;1.50;;;;;;;;;;5036451;28;20040;-55
2023/03/10 10:35:58;;;;;;;3.13;1.58;;;;;;;;;;5029043;28;20025;-55
2023/03/10 10:38:27;;;;;;;2.60;1.90;;;;;;;;;;5016853;28;20056;-56
2023/03/10 10:41:03;;;;;;;2.38;1.77;;;;;;;;;;5027327;28;20073;-55
2023/03/10 10:43:29;;;;;;;3.42;2.28;;;;;;;;;;5020442;28;20446;-54
2023/03/10 10:46:02;;;;;;;3.20;2.10;;;;;;;;;;5025390;28;20045;-54
2023/03/10 10:48:35;;;;;;;3.88;2.47;;;;;;;;;;5028550;28;20033;-55
2023/03/10 10:51:01;;;;;;;3.95;2.28;;;;;;;;;;5028508;28;20104;-53
2023/03/10 10:53:33;;;;;;;4.18;2.67;;;;;;;;;;5024959;28;20160;-54
2023/03/10 10:56:18;;;;;;;3.92;2.80;;;;;;;;;;5024111;28;20468;-54
2023/03/10 10:59:01;;;;;;;2.97;2.67;;;;;;;;;;5027654;28;20574;-54
2023/03/10 11:01:26;;;;;;;3.85;2.60;;;;;;;;;;5019823;28;20037;-55
2023/03/10 11:04:05;;;;;;;4.13;2.92;;;;;;;;;;5020462;28;20049;-54
2023/03/10 11:06:36;;;;;;;4.60;3.35;;;;;;;;;;5016444;28;20041;-55
2023/03/10 11:09:21;;;;;;;5.18;2.70;;;;;;;;;;5019959;28;20033;-54
2023/03/10 11:12:18;;;;;;;6.32;3.00;;;;;;;;;;5021840;28;20037;-54
2023/03/10 11:15:24;;;;;;;7.30;4.13;;;;;;;;;;5020464;28;20124;-54
2023/03/10 11:17:59;;;;;;;4.85;2.35;;;;;;;;;;5020548;28;20045;-55
2023/03/10 11:20:38;;;;;;;7.63;3.25;;;;;;;;;;5019382;28;20619;-55
2023/03/10 11:23:29;;;;;;;5.95;3.80;;;;;;;;;;5018313;28;20145;-54
2023/03/10 11:26:01;;;;;;;3.55;2.60;;;;;;;;;;5016400;28;20083;-54
2023/03/10 11:28:45;;;;;;;4.90;2.45;;;;;;;;;;5018542;28;20701;-55
2023/03/10 11:31:32;;;;;;;4.72;2.30;;;;;;;;;;5022434;28;20446;-55
2023/03/10 11:34:19;;;;;;;3.25;2.15;;;;;;;;;;5016050;28;20041;-53
2023/03/10 11:37:03;;;;;;;4.45;2.35;;;;;;;;;;5020247;28;20521;-54
2023/03/10 11:39:42;;;;;;;3.08;1.70;;;;;;;;;;5023456;28;20129;-56
2023/03/10 11:42:44;;;;;;;3.05;1.65;;;;;;;;;;5023572;28;20060;-56
2023/03/10 11:45:35;;;;;;;3.88;1.63;;;;;;;;;;5016690;28;20037;-55
2023/03/10 11:48:33;;;;;;;2.65;1.60;;;;;;;;;;5026448;28;20410;-55
2023/03/10 11:51:00;;;;;;;3.45;1.42;;;;;;;;;;4980051;28;20037;-55
2023/03/10 11:53:43;;;;;;;2.10;1.50;;;;;;;;;;5021678;28;20060;-54
2023/03/10 11:56:11;;;;;;;5.43;1.55;;;;;;;;;;5019959;28;20057;-56
2023/03/10 11:58:54;;;;;;;2.45;1.55;;;;;;;;;;5020943;28;20052;-55
2023/03/10 12:01:25;;;;;;;3.75;1.27;;;;;;;;;;5015163;28;20767;-54
2023/03/10 12:03:54;;;;;;;2.10;1.23;;;;;;;;;;5016621;28;20588;-55
2023/03/10 12:06:27;;;;;;;2.97;1.35;;;;;;;;;;5019532;28;20407;-55
2023/03/10 12:08:55;;;;;;;2.75;1.35;;;;;;;;;;5019536;28;20072;-56
2023/03/10 12:11:24;;;;;;;2.28;1.27;;;;;;;;;;5021036;28;20506;-54
2023/03/10 12:13:54;;;;;;;1.88;1.42;;;;;;;;;;5021463;28;20042;-53
2023/03/10 12:16:24;;;;;;;1.98;1.40;;;;;;;;;;5018092;28;20041;-55
2023/03/10 12:18:50;;;;;;;2.20;1.10;;;;;;;;;;5023576;28;20045;-55
2023/03/10 12:21:21;;;;;;;2.17;0.90;;;;;;;;;;5023768;28;20069;-56
2023/03/10 12:23:49;;;;;;;2.28;1.33;;;;;;;;;;5021217;28;20037;-53
2023/03/10 12:26:37;;;;;;;1.08;0.95;;;;;;;;;;5011945;28;20407;-54
2023/03/10 12:29:34;;;;;;;1.10;1.00;;;;;;;;;;5008404;28;20124;-54
2023/03/10 12:32:00;;;;;;;2.55;1.00;;;;;;;;;;5016252;28;20122;-55
2023/03/10 12:34:30;;;;;;;1.55;0.98;;;;;;;;;;5019804;28;20554;-55
2023/03/10 12:37:05;;;;;;;1.50;1.20;;;;;;;;;;5020249;28;20565;-54
2023/03/10 12:39:37;;;;;;;2.83;1.10;;;;;;;;;;5018516;28;20040;-55
2023/03/10 12:42:31;;;;;;;2.35;1.10;;;;;;;;;;5026471;28;20188;-56
2023/03/10 12:45:16;;;;;;;1.38;1.08;;;;;;;;;;5018413;28;20040;-53
2023/03/10 12:48:02;;;;;;;1.27;1.02;;;;;;;;;;5021051;28;20091;-55
2023/03/10 12:50:32;;;;;;;1.17;1.05;;;;;;;;;;5017088;28;20537;-54
2023/03/10 12:53:19;;;;;;;2.10;1.42;;;;;;;;;;5020356;28;20096;-55
2023/03/10 12:56:12;;;;;;;2.13;1.50;;;;;;;;;;5017851;28;20144;-54
2023/03/10 12:58:48;;;;;;;2.28;1.25;;;;;;;;;;5019014;28;20038;-54
2023/03/10 13:01:18;;;;;;;3.40;1.77;;;;;;;;;;5021233;28;20033;-54
2023/03/10 13:03:54;;;;;;;3.22;2.08;;;;;;;;;;5019030;28;20446;-53
2023/03/10 13:06:31;;;;;;;2.83;1.88;;;;;;;;;;5017771;28;20041;-54
2023/03/10 13:09:06;;;;;;;5.75;2.38;;;;;;;;;;5018393;28;20073;-55
2023/03/10 13:11:41;;;;;;;4.93;3.05;;;;;;;;;;5018910;28;20508;-52
2023/03/10 13:14:32;;;;;;;6.25;3.17;;;;;;;;;;5017552;28;20034;-55
2023/03/10 13:17:00;;;;;;;7.07;4.10;;;;;;;;;;5019637;28;20056;-54
2023/03/10 13:19:31;;;;;;;7.32;3.72;;;;;;;;;;5025051;28;20043;-55
2023/03/10 13:21:57;;;;;;;7.28;3.78;;;;;;;;;;5017970;28;20107;-51
2023/03/10 13:24:22;;;;;;;6.15;3.78;;;;;;;;;;5022725;28;20041;-54
2023/03/10 13:27:00;;;;;;;9.10;4.05;;;;;;;;;;5018757;28;20030;-53
2023/03/10 13:29:25;;;;;;;4.07;2.95;;;;;;;;;;5018370;28;20068;-54
2023/03/10 13:31:52;;;;;;;4.05;2.80;;;;;;;;;;5016997;28;20041;-54
2023/03/10 13:34:19;;;;;;;2.70;2.38;;;;;;;;;;5024456;28;20116;-55
2023/03/10 13:36:46;;;;;;;2.85;1.90;;;;;;;;;;5025563;28;20616;-53
2023/03/10 13:39:20;;;;;;;3.13;1.27;;;;;;;;;;5018991;28;20049;-56
2023/03/10 13:41:52;;;;;;;6.22;1.10;;;;;;;;;;5012596;28;20083;-55
2023/03/10 13:44:23;;;;;;;1.42;1.02;;;;;;;;;;5023495;28;20032;-54
2023/03/10 13:46:51;;;;;;;2.80;1.60;;;;;;;;;;5014164;28;20045;-56
2023/03/10 13:49:19;;;;;;;1.67;1.35;;;;;;;;;;5022240;28;20041;-56
2023/03/10 13:51:54;;;;;;;3.17;2.20;;;;;;;;;;5018905;28;20045;-55
2023/03/10 13:54:28;;;;;;;1.48;1.20;;;;;;;;;;5012272;28;20041;-55
2023/03/10 13:56:57;;;;;;;2.67;1.70;;;;;;;;;;5013440;28;20037;-55
2023/03/10 13:59:27;;;;;;;1.02;0.95;;;;;;;;;;5015719;28;20506;-55
2023/03/10 14:01:55;;;;;;;1.63;0.90;;;;;;;;;;5014348;28;20053;-56
2023/03/10 14:04:42;;;;;;;3.40;0.90;;;;;;;;;;5015739;28;20049;-54
2023/03/10 14:07:11;;;;;;;3.00;0.80;;;;;;;;;;5016081;28;20045;-56
2023/03/10 14:09:37;;;;;;;1.40;0.77;;;;;;;;;;5022965;28;20079;-54
2023/03/10 14:12:02;;;;;;;0.40;0.40;;;;;;;;;;5018922;28;20071;-55
2023/03/10 14:14:30;;;;;;;1.48;0.70;;;;;;;;;;5009858;28;20053;-55
2023/03/10 14:17:02;;;;;;;0.40;0.40;;;;;;;;;;5022554;28;20686;-53
2023/03/10 14:19:40;;;;;;;1.58;0.70;;;;;;;;;;5032381;28;20048;-56
2023/03/10 14:22:24;;;;;;;1.55;0.68;;;;;;;;;;5018183;28;20088;-54
2023/03/10 14:24:50;;;;;;;2.25;0.93;;;;;;;;;;5023770;28;20076;-56
2023/03/10 14:27:16;;;;;;;1.85;0.68;;;;;;;;;;5023260;28;20052;-55
2023/03/10 14:29:48;;;;;;;2.55;0.93;;;;;;;;;;5024343;28;20048;-55
2023/03/10 14:32:14;;;;;;;1.83;0.80;;;;;;;;;;5023862;28;20076;-56
2023/03/10 14:34:40;;;;;;;1.60;0.70;;;;;;;;;;5023042;28;20489;-55
2023/03/10 14:37:05;;;;;;;2.55;0.90;;;;;;;;;;5014031;28;20068;-55
2023/03/10 14:39:32;;;;;;;0.77;0.77;;;;;;;;;;5017516;28;20610;-54
2023/03/10 14:41:58;;;;;;;1.63;0.90;;;;;;;;;;5023734;28;20041;-54
2023/03/10 14:44:23;;;;;;;3.67;1.05;;;;;;;;;;5022035;28;20026;-55
2023/03/10 14:46:51;;;;;;;2.97;1.35;;;;;;;;;;5023202;28;20041;-54
2023/03/10 14:49:24;;;;;;;3.05;1.63;;;;;;;;;;5023127;28;20549;-53
2023/03/10 14:51:50;;;;;;;3.65;1.50;;;;;;;;;;5023508;28;20064;-55
2023/03/10 14:54:21;;;;;;;3.60;1.23;;;;;;;;;;5019822;28;20707;-55